Station info - map view · info · telemetry · weather · raw · status · beacons · messages · bulletins · browse · moving · my account
Callsign, ship name or locator: Clear       
It is possible to search using wildcards (*?) after a prefix. Example: OH*
APRS station KG7SXF-7 - show graphs
Map loading...
Mic-E message: Off duty
Location: 47°52.78' N 122°16.47' W - locator CN87UV71BC - show map - static map
3.5 miles Northwest bearing 293° from Mill Creek, Snohomish County, Washington, United States [?]
5.6 miles West bearing 280° from Silver Firs, Snohomish County, Washington, United States
19.1 miles North bearing 8° from Seattle, King County, Washington, United States
63.3 miles Southeast bearing 127° from Victoria, British Columbia, Canada
Last position: 2019-01-20 23:59:18 EST (1d 19h39m ago)
2019-01-20 20:59:18 PST local time at Mill Creek, United States [?]
Altitude: 505 ft
Course: 117°
Device: Yaesu: VX-8 (ht)
Last path: KG7SXF-7>TWURWX via WIDE1-1,WIDE2-1,qAO,K2VOR-10 (good)
Positions stored: 14101
Packet rate: 61 seconds between packets on average during 2991 seconds.
Other SSIDs: KG7SXF KG7SXF-5
Stations near current position of KG7SXF-7 - show more
callsign distance last heard - EST      callsign distance last heard - EST
KG7SXF0.0 yards 0°2018-12-29 11:07:38 N7IPB-9463.8 yards 146°2019-01-19 12:24:25
KA7TRK-91.0 miles 2°2019-01-22 07:40:42 K2VOR-101.0 miles 45°2019-01-22 19:29:55
N42SV1.6 miles 359°2019-01-12 14:09:58 K7QOG1.6 miles 213°2019-01-09 19:43:12
K7QOG-51.7 miles 213°2019-01-16 20:09:34 K7QOG-101.7 miles 208°2019-01-22 17:25:24
NR7SS B1.9 miles 350°2019-01-22 19:37:12 NR7SS-B1.9 miles 350°2019-01-22 19:36:57
NW7DR B2.1 miles 224°2019-01-22 19:36:27 NW7DR-B2.1 miles 224°2019-01-22 19:36:21
NW7DR-C2.1 miles 224°2019-01-22 19:36:22 NW7DR C2.1 miles 224°2019-01-22 19:36:27
K7VE-152.1 miles 225°2019-01-21 13:05:49 K7VE-42.1 miles 225°2018-12-27 19:36:55
K7VE2.1 miles 224°2019-01-20 21:43:33 K7QOG-92.4 miles 202°2019-01-22 12:44:50
KD7ITS-112.6 miles 37°2019-01-09 00:31:37 W7RMH-72.8 miles 75°2018-12-23 19:39:52
Stations which heard KG7SXF-7 directly on radio –
callsign pkts first heard - EST last heard longest (tx => rx) longest at - EST
BALDI 47 2019-01-20 13:36:19 2019-01-20 23:46:05 CN87UV > CN97BF 49.9 miles 156° 2019-01-20 23:46:05
WW7RA 8 2019-01-20 21:56:16 2019-01-20 23:22:32 CN87UV > CN87ON 33.7 miles 227° 2019-01-20 23:22:32
W7PFR-1 3 2019-01-20 13:50:30 2019-01-20 23:31:32 CN87UV > CN86UU 71.8 miles 179° 2019-01-20 23:31:32
SOMTN 1 2019-01-20 21:38:02 2019-01-20 21:38:02 CN87UV > CN87HH 62.9 miles 232° 2019-01-20 21:38:02
MISION 25 2019-01-20 15:02:31 2019-01-20 19:46:24 CN96QN > CN97TG 50.7 miles 13° 2019-01-20 18:14:06
YAKIMA 117 2019-01-20 16:31:44 2019-01-20 19:04:52 CN96QN > CN96TP 13.1 miles 66° 2019-01-20 18:13:05
ERINB 8 2019-01-20 13:49:29 2019-01-20 21:38:38 CN87VO > CN87MQ 35.3 miles 279° 2019-01-20 21:01:23
TIGER 9 2019-01-20 13:57:35 2019-01-20 20:55:19 CN97CL > CN97AM 10.8 miles 283° 2019-01-20 14:13:54
SNOPAS 18 2019-01-20 14:24:01 2019-01-20 20:28:59 CN97IG > CN97HK 11.0 miles 328° 2019-01-20 20:13:48
KITTAS 16 2019-01-20 15:01:29 2019-01-20 19:50:29 CN97OD > CN97TA 21.5 miles 118° 2019-01-20 15:01:29
N7ER-10 1 2019-01-20 21:38:02 2019-01-20 21:38:02 CN87UV > CN87TW 6.9 miles 320° 2019-01-20 21:38:02
W7HR-1 1 2019-01-20 14:09:50 2019-01-20 14:09:50 CN97BM > CN87RN 33.6 miles 275° 2019-01-20 14:09:50
W7NPC-10 2 2019-01-20 14:11:51 2019-01-20 20:41:07 CN97CL > CN87RP 38.6 miles 289° 2019-01-20 20:41:07
KE7PGE-10 1 2019-01-20 14:03:42 2019-01-20 14:03:42 CN97AM > CN97AN 0.7 miles 35° 2019-01-20 14:03:42
JUPITR 3 2019-01-20 13:50:22 2019-01-20 21:28:54 CN87VQ > CN87MQ 36.3 miles 273° 2019-01-20 13:50:22
KX3O-10 1 2019-01-20 13:38:20 2019-01-20 13:38:20 CN87UU > CN87TT 4.4 miles 230° 2019-01-20 13:38:20
KI7RYA-10 3 2019-01-20 13:48:28 2019-01-20 21:08:28 CN87VQ > CN87UQ 4.4 miles 263° 2019-01-20 21:08:28
CRYSTL 1 2019-01-20 20:38:05 2019-01-20 20:38:05 CN97DK > CN96GW 36.4 miles 165° 2019-01-20 20:38:05
WA7LAW 6 2019-01-20 21:29:54 2019-01-20 21:37:01 CN87UV > CN87VX 9.0 miles 26° 2019-01-20 21:37:01
N7RHW 14 2019-01-20 16:32:44 2019-01-20 19:03:50 CN96SQ > CN96QP 6.7 miles 258° 2019-01-20 19:03:50
NWYKMA 10 2019-01-20 16:35:47 2019-01-20 18:52:42 CN96SQ > CN96RO 5.7 miles 218° 2019-01-20 18:52:42
N6HA-1 1 2019-01-20 13:57:35 2019-01-20 13:57:35 CN87WN > CN87XP 7.4 miles 35° 2019-01-20 13:57:35
K2VOR-10 98 2019-01-20 13:33:16 2019-01-20 23:59:18 CN87UV > CN87UV 1.1 miles 59° 2019-01-20 21:40:03

Only position packets which were originated by the station are shown here. The range statistics show some extra long hops, because some digipeaters do not correctly add themselves to the digipeater path. Please check the raw packets.
About this site
This page shows real-time information collected from the Automatic Position Reporting System Internet network (APRS-IS). APRS is used by amateur (ham) radio operators to transmit real-time position information, weather data, telemetry and messages over the radio. A vehicle equipped with a GPS receiver, a VHF transmitter or HF transceiver and a small computer device called a tracker transmits it's location, speed and course in a small data packet, which is then received by a nearby iGate receiving site which forwards the packet on the Internet. Systems connected to the Internet can send information on the APRS-IS without a radio transmitter, or collect and display information transmitted anywhere in the world.
FAQ · Blog · Discussion group · Linking to aprs.fi · AIS sites · Service status · Database statistics · Advertising on aprs.fi · Technical details · API · Change log · Planned changes · Credits and thanks · Terms Of Service · iPhone/iPad APRS